createdAt,value
2018-08-18T00:00:41.682Z,96403.86
2018-08-18T00:03:11.480Z,96396.02
2018-08-18T00:05:41.438Z,96403.59
2018-08-18T00:08:11.294Z,96399.83
2018-08-18T00:10:41.158Z,96401.79
2018-08-18T00:13:10.986Z,96404.11
2018-08-18T00:15:41.414Z,96409.70
2018-08-18T00:18:11.682Z,96405.33
2018-08-18T00:20:41.466Z,96404.11
2018-08-18T00:23:12.238Z,96405.15
2018-08-18T00:25:42.700Z,96404.81
2018-08-18T00:28:24.178Z,96400.31
2018-08-18T00:30:55.356Z,96408.52
2018-08-18T00:33:26.265Z,96404.45
2018-08-18T00:35:57.688Z,96404.59
2018-08-18T00:38:27.858Z,96400.88
2018-08-18T00:40:59.662Z,96398.94
2018-08-18T00:43:30.232Z,96393.58
2018-08-18T00:46:00.239Z,96392.23
2018-08-18T00:48:31.288Z,96390.86
2018-08-18T00:51:01.326Z,96389.77
2018-08-18T00:53:32.001Z,96394.03
2018-08-18T00:56:03.414Z,96387.30
2018-08-18T00:58:34.004Z,96387.82
2018-08-18T01:01:06.266Z,96388.16
2018-08-18T01:03:44.437Z,96395.77
2018-08-18T01:06:21.108Z,96400.77
2018-08-18T01:08:55.917Z,96400.03
2018-08-18T01:11:26.534Z,96403.42
2018-08-18T01:13:58.859Z,96403.84
2018-08-18T01:16:28.874Z,96403.17
2018-08-18T01:19:00.368Z,96407.58
2018-08-18T01:21:31.158Z,96404.37
2018-08-18T01:24:02.480Z,96401.19
2018-08-18T01:30:09.494Z,96405.41
2018-08-18T01:32:39.948Z,96403.78
2018-08-18T01:35:11.352Z,96409.97
2018-08-18T01:37:41.837Z,96401.35
2018-08-18T01:40:13.036Z,96394.97
2018-08-18T01:42:43.312Z,96401.33
2018-08-18T01:45:13.184Z,96404.26
2018-08-18T01:47:43.098Z,96402.74
2018-08-18T01:50:19.020Z,96407.70
2018-08-18T01:52:49.078Z,96403.80
2018-08-18T01:55:18.968Z,96404.43
2018-08-18T01:57:48.820Z,96407.63
2018-08-18T02:00:27.222Z,96410.78
2018-08-18T02:02:57.237Z,96406.47
2018-08-18T02:09:03.155Z,96408.47
2018-08-18T02:11:33.057Z,96414.36
2018-08-18T02:14:03.665Z,96411.27
2018-08-18T02:16:33.507Z,96414.41
2018-08-18T02:19:03.584Z,96424.00
2018-08-18T02:21:36.921Z,96429.46
2018-08-18T02:24:07.090Z,96425.28
2018-08-18T02:26:37.297Z,96427.16
2018-08-18T02:29:07.334Z,96421.45
2018-08-18T02:31:37.234Z,96422.34
2018-08-18T02:34:07.189Z,96425.39
2018-08-18T02:36:37.142Z,96418.80
2018-08-18T02:39:09.109Z,96428.29
2018-08-18T02:41:43.673Z,96427.39
2018-08-18T02:44:13.571Z,96420.23
2018-08-18T02:46:43.697Z,96424.69
2018-08-18T02:49:13.971Z,96418.77
2018-08-18T02:51:43.961Z,96418.20
2018-08-18T02:54:13.827Z,96421.80
2018-08-18T02:56:44.299Z,96426.69
2018-08-18T02:59:14.182Z,96429.81
2018-08-18T03:01:44.891Z,96429.16
2018-08-18T03:04:15.679Z,96431.67
2018-08-18T03:06:45.567Z,96427.03
2018-08-18T03:09:15.438Z,96430.29
2018-08-18T03:11:45.967Z,96428.19
2018-08-18T03:14:16.073Z,96428.09
2018-08-18T03:16:46.004Z,96428.78
2018-08-18T03:19:15.883Z,96438.70
2018-08-18T03:21:45.762Z,96434.02
2018-08-18T03:24:25.085Z,96435.20
2018-08-18T03:26:57.318Z,96433.13
2018-08-18T03:29:28.451Z,96441.92
2018-08-18T03:31:58.569Z,96442.10
2018-08-18T03:34:28.937Z,96435.23
2018-08-18T03:36:59.525Z,96439.61
2018-08-18T03:39:33.444Z,96439.53
2018-08-18T03:42:04.668Z,96437.78
2018-08-18T03:44:41.305Z,96440.98
2018-08-18T03:47:11.829Z,96446.19
2018-08-18T03:49:42.236Z,96444.08
2018-08-18T03:59:24.364Z,96443.69
2018-08-18T04:02:00.907Z,96449.72
2018-08-18T04:04:33.407Z,96445.48
2018-08-18T04:07:05.126Z,96444.95
2018-08-18T04:09:36.807Z,96447.36
2018-08-18T04:12:09.096Z,96449.87
2018-08-18T04:14:40.571Z,96450.87
2018-08-18T04:17:43.379Z,96447.05
2018-08-18T04:20:13.475Z,96450.87
2018-08-18T04:22:44.057Z,96452.13
2018-08-18T04:25:14.555Z,96454.99
2018-08-18T04:27:47.915Z,96449.83
2018-08-18T04:30:21.257Z,96451.55
2018-08-18T04:33:01.889Z,96448.36
2018-08-18T04:35:33.134Z,96449.50
2018-08-18T04:38:04.599Z,96458.27
2018-08-18T04:40:37.507Z,96455.23
2018-08-18T04:43:07.859Z,96464.64
2018-08-18T04:45:38.337Z,96468.16
2018-08-18T04:48:09.080Z,96460.34
2018-08-18T04:50:39.138Z,96466.72
2018-08-18T04:53:09.758Z,96463.45
2018-08-18T04:55:40.178Z,96471.64
2018-08-18T04:58:10.998Z,96468.71
2018-08-18T05:00:41.482Z,96469.53
2018-08-18T05:03:12.470Z,96469.61
2018-08-18T05:05:42.864Z,96472.07
2018-08-18T05:08:14.268Z,96468.34
2018-08-18T05:10:44.720Z,96471.71
2018-08-18T05:13:15.114Z,96472.05
2018-08-18T05:15:45.518Z,96465.84
2018-08-18T05:18:15.930Z,96469.28
2018-08-18T05:20:46.777Z,96468.77
2018-08-18T05:23:25.230Z,96474.81
2018-08-18T05:25:55.982Z,96470.33
2018-08-18T05:28:26.352Z,96471.53
2018-08-18T05:30:56.914Z,96475.78
2018-08-18T05:33:26.786Z,96476.19
2018-08-18T05:35:57.660Z,96475.25
2018-08-18T05:38:28.030Z,96476.11
2018-08-18T05:40:58.835Z,96473.95
2018-08-18T05:43:29.318Z,96479.65
2018-08-18T05:46:00.384Z,96471.50
2018-08-18T05:48:31.276Z,96475.75
2018-08-18T05:51:01.770Z,96473.30
2018-08-18T05:53:33.876Z,96478.25
2018-08-18T05:56:05.060Z,96481.34
2018-08-18T05:59:06.472Z,96479.94
2018-08-18T06:01:39.042Z,96482.77
2018-08-18T06:04:16.892Z,96481.56
2018-08-18T06:06:48.442Z,96485.59
2018-08-18T06:09:20.222Z,96486.83
2018-08-18T06:11:50.832Z,96486.65
2018-08-18T06:14:21.302Z,96488.63
2018-08-18T06:16:52.351Z,96489.14
2018-08-18T06:19:22.756Z,96490.02
2018-08-18T06:21:53.723Z,96493.27
2018-08-18T06:24:24.174Z,96491.20
2018-08-18T06:26:54.668Z,96501.91
2018-08-18T06:29:25.070Z,96502.38
2018-08-18T06:32:03.030Z,96504.84
2018-08-18T06:34:34.703Z,96502.08
2018-08-18T06:37:05.672Z,96504.81
2018-08-18T06:40:00.848Z,96506.66
2018-08-18T06:42:45.786Z,96496.98
2018-08-18T06:45:50.390Z,96502.21
2018-08-18T06:48:23.245Z,96500.39
2018-08-18T06:50:53.727Z,96504.59
2018-08-18T06:53:24.194Z,96502.83
2018-08-18T06:55:54.974Z,96499.47
2018-08-18T06:58:25.578Z,96503.77
2018-08-18T07:00:56.646Z,96502.76
2018-08-18T07:03:39.192Z,96509.48
2018-08-18T07:06:11.866Z,96512.91
2018-08-18T07:08:47.345Z,96511.04
2018-08-18T07:11:17.827Z,96517.32
2018-08-18T07:13:49.600Z,96518.11
2018-08-18T07:16:20.052Z,96516.63
2018-08-18T07:18:50.449Z,96520.88
2018-08-18T07:21:22.022Z,96521.36
2018-08-18T07:23:52.431Z,96525.29
2018-08-18T07:26:23.078Z,96532.14
2018-08-18T07:28:53.629Z,96527.88
2018-08-18T07:31:24.339Z,96533.92
2018-08-18T07:33:55.084Z,96528.57
2018-08-18T07:36:25.465Z,96529.66
2018-08-18T07:38:55.904Z,96527.88
2018-08-18T07:41:26.439Z,96530.25
2018-08-18T07:43:57.383Z,96533.62
2018-08-18T07:46:27.743Z,96536.39
2018-08-18T07:48:58.328Z,96532.70
2018-08-18T07:51:28.753Z,96535.77
2018-08-18T07:53:59.155Z,96533.72
2018-08-18T07:56:29.525Z,96537.35
2018-08-18T07:59:00.009Z,96542.84
2018-08-18T08:01:30.408Z,96540.34
2018-08-18T08:04:00.881Z,96541.56
2018-08-18T08:06:31.315Z,96543.17
2018-08-18T08:09:01.921Z,96552.42
2018-08-18T08:11:32.378Z,96547.22
2018-08-18T08:14:02.811Z,96551.80
2018-08-18T08:16:33.217Z,96550.56
2018-08-18T08:19:04.020Z,96555.27
2018-08-18T08:21:34.440Z,96558.39
2018-08-18T08:24:05.135Z,96556.55
2018-08-18T08:26:36.611Z,96557.44
2018-08-18T08:29:07.080Z,96556.48
2018-08-18T08:31:37.474Z,96558.95
2018-08-18T08:34:08.267Z,96559.09
2018-08-18T08:36:38.761Z,96557.27
2018-08-18T08:39:09.674Z,96562.70
2018-08-18T08:41:40.264Z,96568.74
2018-08-18T08:44:10.703Z,96568.78
2018-08-18T08:46:45.712Z,96561.59
2018-08-18T08:49:16.083Z,96563.17
2018-08-18T08:51:46.847Z,96564.89
2018-08-18T08:54:17.535Z,96555.55
2018-08-18T08:56:47.911Z,96555.64
2018-08-18T08:59:18.551Z,96555.95
2018-08-18T09:01:49.387Z,96550.78
2018-08-18T09:04:19.799Z,96553.89
2018-08-18T09:06:57.141Z,96551.36
2018-08-18T09:09:27.715Z,96553.09
2018-08-18T09:11:58.179Z,96552.67
2018-08-18T09:14:28.757Z,96551.27
2018-08-18T09:16:59.186Z,96546.84
2018-08-18T09:19:29.767Z,96544.28
2018-08-18T09:22:04.137Z,96543.34
2018-08-18T09:24:34.506Z,96539.94
2018-08-18T09:27:06.269Z,96542.92
2018-08-18T09:29:40.492Z,96540.86
2018-08-18T09:32:11.036Z,96541.58
2018-08-18T09:34:46.761Z,96536.66
2018-08-18T09:37:17.907Z,96540.28
2018-08-18T09:39:48.406Z,96536.41
2018-08-18T09:42:20.364Z,96541.53
2018-08-18T09:44:53.601Z,96542.16
2018-08-18T09:47:24.050Z,96544.46
2018-08-18T09:49:54.483Z,96540.28
2018-08-18T09:52:24.875Z,96540.91
2018-08-18T09:54:55.249Z,96538.06
2018-08-18T09:57:25.934Z,96540.30
2018-08-18T09:59:56.356Z,96535.55
2018-08-18T10:02:26.942Z,96539.55
2018-08-18T10:04:57.282Z,96523.31
2018-08-18T10:07:27.729Z,96526.27
2018-08-18T10:09:58.180Z,96526.76
2018-08-18T10:12:28.570Z,96527.59
2018-08-18T10:14:58.976Z,96528.36
2018-08-18T10:17:29.336Z,96531.38
2018-08-18T10:20:01.578Z,96532.72
2018-08-18T10:22:32.068Z,96526.01
2018-08-18T10:25:02.818Z,96532.11
2018-08-18T10:27:33.266Z,96528.27
2018-08-18T10:30:03.710Z,96527.25
2018-08-18T10:32:39.632Z,96532.23
2018-08-18T10:35:13.624Z,96526.33
2018-08-18T10:37:44.282Z,96529.28
2018-08-18T10:40:14.684Z,96529.69
2018-08-18T10:42:45.040Z,96527.02
2018-08-18T10:45:15.547Z,96526.33
2018-08-18T10:47:46.214Z,96524.67
2018-08-18T10:51:37.161Z,96521.80
2018-08-18T10:54:07.716Z,96523.50
2018-08-18T10:56:38.278Z,96523.63
2018-08-18T10:59:18.251Z,96525.96
2018-08-18T11:02:05.762Z,96524.22
2018-08-18T11:04:37.292Z,96531.91
2018-08-18T11:07:08.080Z,96529.53
2018-08-18T11:09:38.462Z,96531.97
2018-08-18T11:12:08.866Z,96527.64
2018-08-18T11:14:39.890Z,96529.46
2018-08-18T11:17:10.492Z,96521.30
2018-08-18T11:19:41.598Z,96522.99
2018-08-18T11:23:15.786Z,96521.05
2018-08-18T11:25:54.684Z,96523.30
2018-08-18T11:28:25.139Z,96521.11
2018-08-18T11:30:56.021Z,96521.75
2018-08-18T11:33:40.174Z,96517.34
2018-08-18T11:36:11.808Z,96509.84
2018-08-18T11:38:42.226Z,96511.81
2018-08-18T11:41:12.623Z,96512.58
2018-08-18T11:43:51.113Z,96519.98
2018-08-18T11:46:21.446Z,96513.34
2018-08-18T11:48:51.932Z,96518.22
2018-08-18T11:51:23.859Z,96513.13
2018-08-18T11:54:02.600Z,96514.28
2018-08-18T11:56:38.879Z,96507.98
2018-08-18T11:59:17.069Z,96506.72
2018-08-18T12:01:50.253Z,96505.89
2018-08-18T12:04:22.515Z,96506.11
2018-08-18T12:06:59.064Z,96505.19
2018-08-18T12:09:29.538Z,96498.95
2018-08-18T12:11:59.991Z,96503.34
2018-08-18T12:14:30.414Z,96495.19
2018-08-18T12:17:00.809Z,96487.07
2018-08-18T12:19:31.256Z,96485.77
2018-08-18T12:22:01.634Z,96484.45
2018-08-18T12:24:32.116Z,96479.70
2018-08-18T12:27:12.683Z,96487.16
2018-08-18T12:29:43.337Z,96486.11
2018-08-18T12:32:18.999Z,96493.78
2018-08-18T12:34:49.402Z,96483.23
2018-08-18T12:37:21.480Z,96488.13
2018-08-18T12:39:51.988Z,96485.69
2018-08-18T12:42:28.974Z,96473.61
2018-08-18T12:44:59.733Z,96473.72
2018-08-18T12:47:30.216Z,96466.66
2018-08-18T12:50:00.829Z,96472.45
2018-08-18T12:52:46.614Z,96470.41
2018-08-18T12:55:17.340Z,96463.83
2018-08-18T12:57:49.987Z,96462.37
2018-08-18T13:00:20.900Z,96461.50
2018-08-18T13:02:54.656Z,96460.14
2018-08-18T13:05:28.448Z,96450.69
2018-08-18T13:07:58.876Z,96450.91
2018-08-18T13:10:30.120Z,96453.58
2018-08-18T13:13:00.474Z,96447.17
2018-08-18T13:15:30.959Z,96444.11
2018-08-18T13:18:01.662Z,96444.95
2018-08-18T13:22:01.534Z,96450.11
2018-08-18T13:24:32.866Z,96445.88
2018-08-18T13:27:03.658Z,96437.53
2018-08-18T13:29:34.397Z,96440.23
2018-08-18T13:32:05.206Z,96440.48
2018-08-18T13:34:35.614Z,96439.11
2018-08-18T13:37:06.314Z,96441.19
2018-08-18T13:39:36.708Z,96434.39
2018-08-18T13:42:24.206Z,96432.41
2018-08-18T13:44:54.980Z,96430.38
2018-08-18T13:47:25.777Z,96424.92
2018-08-18T13:50:01.299Z,96420.19
2018-08-18T13:52:37.872Z,96419.98
2018-08-18T13:55:08.390Z,96417.83
2018-08-18T13:57:39.001Z,96429.99
2018-08-18T14:00:16.455Z,96421.55
2018-08-18T14:02:47.138Z,96421.52
2018-08-18T14:05:36.830Z,96416.95
2018-08-18T14:08:07.501Z,96404.20
2018-08-18T14:10:37.720Z,96406.71
2018-08-18T14:13:08.372Z,96402.62
2018-08-18T14:15:39.946Z,96400.39
2018-08-18T14:18:12.379Z,96399.14
2018-08-18T14:21:15.721Z,96397.92
2018-08-18T14:23:46.937Z,96392.98
2018-08-18T14:26:17.936Z,96393.03
2018-08-18T14:28:48.094Z,96400.59
2018-08-18T14:31:19.257Z,96399.56
2018-08-18T14:33:49.357Z,96398.27
2018-08-18T14:36:19.931Z,96395.96
2018-08-18T14:38:50.073Z,96385.50
2018-08-18T14:41:40.786Z,96387.16
2018-08-18T14:44:10.915Z,96391.32
2018-08-18T14:46:41.194Z,96386.91
2018-08-18T14:49:11.664Z,96391.66
2018-08-18T14:51:42.401Z,96386.54
2018-08-18T14:54:12.996Z,96384.88
2018-08-18T14:56:43.775Z,96377.17
2018-08-18T14:59:14.690Z,96381.37
2018-08-18T15:01:45.187Z,96383.41
2018-08-18T15:04:15.758Z,96377.50
2018-08-18T15:06:46.266Z,96381.05
2018-08-18T15:09:35.308Z,96373.06
2018-08-18T15:12:05.828Z,96369.62
2018-08-18T15:14:36.196Z,96370.71
2018-08-18T15:17:06.715Z,96370.71
2018-08-18T15:19:37.135Z,96357.13
2018-08-18T15:22:09.214Z,96367.91
2018-08-18T15:24:39.768Z,96365.41
2018-08-18T15:27:10.237Z,96366.66
2018-08-18T15:29:40.877Z,96371.13
2018-08-18T15:32:11.010Z,96364.86
2018-08-18T15:34:41.228Z,96362.47
2018-08-18T15:37:11.384Z,96363.39
2018-08-18T15:39:41.433Z,96368.06
2018-08-18T15:42:11.770Z,96360.86
2018-08-18T15:45:01.893Z,96365.95
2018-08-18T15:47:31.994Z,96357.88
2018-08-18T15:50:02.610Z,96363.30
2018-08-18T15:52:33.808Z,96365.26
2018-08-18T15:55:05.330Z,96369.58
2018-08-18T15:57:35.431Z,96364.91
2018-08-18T16:00:15.630Z,96368.57
2018-08-18T16:02:45.722Z,96361.42
2018-08-18T16:05:15.824Z,96360.27
2018-08-18T16:07:45.856Z,96363.55
2018-08-18T16:10:15.942Z,96363.82
2018-08-18T16:12:46.280Z,96365.29
2018-08-18T16:15:16.694Z,96367.48
2018-08-18T16:17:47.156Z,96373.61
2018-08-18T16:20:21.670Z,96369.05
2018-08-18T16:22:54.854Z,96362.81
2018-08-18T16:25:40.426Z,96365.72
2018-08-18T16:28:11.136Z,96366.41
2018-08-18T16:30:41.504Z,96368.90
2018-08-18T16:33:16.439Z,96366.53
2018-08-18T16:35:47.126Z,96375.23
2018-08-18T16:38:17.827Z,96369.20
2018-08-18T16:40:48.189Z,96371.98
2018-08-18T16:43:18.287Z,96369.39
2018-08-18T16:45:48.448Z,96370.81
2018-08-18T16:48:18.639Z,96369.92
2018-08-18T16:50:48.786Z,96363.67
2018-08-18T16:53:18.847Z,96372.34
2018-08-18T16:55:49.136Z,96376.69
2018-08-18T16:58:19.242Z,96375.98
2018-08-18T17:01:00.727Z,96374.72
2018-08-18T17:03:32.994Z,96372.05
2018-08-18T17:06:04.590Z,96378.00
2018-08-18T17:08:35.097Z,96380.84
2018-08-18T17:11:05.543Z,96375.43
2018-08-18T17:13:36.729Z,96380.95
2018-08-18T17:16:07.259Z,96384.98
2018-08-18T17:18:37.659Z,96384.09
2018-08-18T17:21:08.976Z,96386.11
2018-08-18T17:23:39.409Z,96392.57
2018-08-18T17:26:09.856Z,96388.51
2018-08-18T17:28:40.318Z,96395.31
2018-08-18T17:31:10.666Z,96391.41
2018-08-18T17:33:41.123Z,96398.82
2018-08-18T17:36:11.539Z,96394.95
2018-08-18T17:38:41.994Z,96396.63
2018-08-18T17:41:12.313Z,96396.63
2018-08-18T17:43:42.711Z,96402.55
2018-08-18T17:46:13.416Z,96406.18
2018-08-18T17:48:56.151Z,96409.68
2018-08-18T17:51:26.872Z,96411.92
2018-08-18T17:53:57.360Z,96413.83
2018-08-18T17:56:27.711Z,96413.88
2018-08-18T17:58:58.154Z,96416.91
2018-08-18T18:01:28.677Z,96419.64
2018-08-18T18:03:59.226Z,96422.38
2018-08-18T18:06:29.903Z,96420.07
2018-08-18T18:09:00.816Z,96422.57
2018-08-18T18:11:31.406Z,96423.19
2018-08-18T18:14:01.914Z,96425.41
2018-08-18T18:16:32.291Z,96431.48
2018-08-18T18:19:02.688Z,96430.16
2018-08-18T18:21:33.422Z,96430.37
2018-08-18T18:24:03.900Z,96432.53
2018-08-18T18:26:34.338Z,96431.66
2018-08-18T18:29:05.094Z,96442.84
2018-08-18T18:31:35.493Z,96438.69
2018-08-18T18:34:05.952Z,96447.21
2018-08-18T18:36:36.649Z,96452.35
2018-08-18T18:39:07.252Z,96442.44
2018-08-18T18:41:37.728Z,96450.13
2018-08-18T18:44:08.061Z,96458.10
2018-08-18T18:46:38.442Z,96454.56
2018-08-18T18:49:31.894Z,96453.66
2018-08-18T18:52:02.624Z,96450.73
2018-08-18T18:54:33.152Z,96458.16
2018-08-18T18:57:03.786Z,96456.75
2018-08-18T18:59:34.727Z,96459.38
2018-08-18T19:02:05.181Z,96461.85
2018-08-18T19:04:35.572Z,96473.31
2018-08-18T19:07:07.440Z,96474.70
2018-08-18T19:09:37.858Z,96483.06
2018-08-18T19:12:08.639Z,96487.37
2018-08-18T19:14:38.915Z,96497.13
2018-08-18T19:17:09.289Z,96502.55
2018-08-18T19:19:39.659Z,96509.19
2018-08-18T19:22:11.031Z,96513.20
2018-08-18T19:24:41.351Z,96523.27
2018-08-18T19:27:11.800Z,96526.69
2018-08-18T19:29:42.422Z,96517.86
2018-08-18T19:32:12.759Z,96520.19
2018-08-18T19:34:43.177Z,96523.59
2018-08-18T19:37:13.518Z,96518.48
2018-08-18T19:39:43.906Z,96520.17
2018-08-18T19:42:16.387Z,96521.10
2018-08-18T19:44:48.148Z,96527.58
2018-08-18T19:47:24.065Z,96532.20
2018-08-18T19:49:54.921Z,96529.42
2018-08-18T19:52:25.548Z,96525.87
2018-08-18T19:54:55.969Z,96526.95
2018-08-18T19:57:31.569Z,96536.05
2018-08-18T20:00:13.449Z,96525.64
2018-08-18T20:03:06.432Z,96528.07
2018-08-18T20:05:36.932Z,96530.41
2018-08-18T20:08:07.944Z,96530.08
2018-08-18T20:10:47.759Z,96528.52
2018-08-18T20:13:19.499Z,96530.36
2018-08-18T20:15:51.529Z,96524.94
2018-08-18T20:18:22.384Z,96531.75
2018-08-18T20:20:53.073Z,96523.41
2018-08-18T20:23:23.499Z,96521.98
2018-08-18T20:25:53.831Z,96529.41
2018-08-18T20:28:24.173Z,96534.66
2018-08-18T20:30:54.576Z,96538.70
2018-08-18T20:33:25.263Z,96537.08
2018-08-18T20:35:55.663Z,96532.84
2018-08-18T20:38:31.148Z,96534.92
2018-08-18T20:41:01.511Z,96538.80
2018-08-18T20:43:32.209Z,96535.77
2018-08-18T20:46:02.617Z,96542.75
2018-08-18T20:48:33.190Z,96540.13
2018-08-18T20:51:03.798Z,96540.13
2018-08-18T20:53:34.241Z,96536.44
2018-08-18T20:56:05.098Z,96537.02
2018-08-18T20:58:36.097Z,96541.63
2018-08-18T21:01:06.482Z,96542.38
2018-08-18T21:03:50.856Z,96537.91
2018-08-18T21:06:21.558Z,96543.88
2018-08-18T21:08:52.101Z,96544.56
2018-08-18T21:11:22.489Z,96545.75
2018-08-18T21:13:52.877Z,96552.42
2018-08-18T21:16:24.121Z,96557.44
2018-08-18T21:18:54.533Z,96557.23
2018-08-18T21:21:34.199Z,96561.63
2018-08-18T21:24:04.916Z,96567.56
2018-08-18T21:26:35.335Z,96564.78
2018-08-18T21:29:06.145Z,96577.19
2018-08-18T21:31:37.869Z,96572.70
2018-08-18T21:34:09.013Z,96568.92
2018-08-18T21:36:40.521Z,96569.35
2018-08-18T21:39:11.216Z,96570.48
2018-08-18T21:41:43.007Z,96572.73
2018-08-18T21:44:14.840Z,96569.27
2018-08-18T21:46:45.457Z,96575.86
2018-08-18T21:49:15.871Z,96574.93
2018-08-18T21:51:46.257Z,96577.67
2018-08-18T21:54:17.110Z,96573.34
2018-08-18T21:56:47.793Z,96579.04
2018-08-18T21:59:18.168Z,96570.36
2018-08-18T22:01:48.560Z,96576.52
2018-08-18T22:04:18.980Z,96574.23
2018-08-18T22:06:49.308Z,96571.61
2018-08-18T22:09:29.042Z,96568.94
2018-08-18T22:12:00.672Z,96575.12
2018-08-18T22:14:31.180Z,96576.58
2018-08-18T22:17:01.984Z,96571.32
2018-08-18T22:19:32.460Z,96575.22
2018-08-18T22:22:02.976Z,96573.30
2018-08-18T22:24:33.690Z,96573.38
2018-08-18T22:27:04.648Z,96572.14
2018-08-18T22:29:35.941Z,96569.37
2018-08-18T22:32:10.394Z,96573.42
2018-08-18T22:34:40.792Z,96569.59
2018-08-18T22:37:14.207Z,96574.27
2018-08-18T22:39:44.706Z,96578.02
2018-08-18T22:42:15.469Z,96576.52
2018-08-18T22:44:46.576Z,96571.11
2018-08-18T22:47:16.978Z,96577.22
2018-08-18T22:49:47.898Z,96573.45
2018-08-18T22:52:18.328Z,96571.33
2018-08-18T22:54:48.811Z,96569.56
2018-08-18T22:57:19.157Z,96562.25
2018-08-18T22:59:49.865Z,96559.47
2018-08-18T23:02:20.858Z,96554.08
2018-08-18T23:04:51.650Z,96557.54
2018-08-18T23:07:22.066Z,96556.16
2018-08-18T23:09:52.429Z,96556.26
2018-08-18T23:12:22.745Z,96552.86
2018-08-18T23:14:53.524Z,96554.00
2018-08-18T23:17:24.019Z,96559.41
2018-08-18T23:19:54.397Z,96556.23
2018-08-18T23:22:46.763Z,96553.82
2018-08-18T23:25:18.816Z,96555.03
2018-08-18T23:27:49.292Z,96551.38
2018-08-18T23:30:39.463Z,96553.31
2018-08-18T23:33:11.190Z,96548.83
2018-08-18T23:35:42.051Z,96550.27
2018-08-18T23:38:12.491Z,96556.19
2018-08-18T23:40:43.092Z,96557.90
2018-08-18T23:43:13.537Z,96550.72
2018-08-18T23:45:49.102Z,96550.00
2018-08-18T23:48:19.940Z,96548.94
2018-08-18T23:50:50.445Z,96547.32
2018-08-18T23:53:23.546Z,96547.70
2018-08-18T23:56:01.195Z,96547.09
2018-08-18T23:58:31.676Z,96542.76
